createdAt,value
2017-09-29T00:00:49.493Z,94.80
2017-09-29T00:05:50.533Z,94.80
2017-09-29T00:10:51.592Z,94.90
2017-09-29T00:15:52.633Z,94.80
2017-09-29T00:20:54.409Z,94.90
2017-09-29T00:25:56.194Z,95.00
2017-09-29T00:30:57.996Z,95.00
2017-09-29T00:35:59.051Z,94.90
2017-09-29T00:41:00.093Z,94.90
2017-09-29T00:46:01.129Z,94.90
2017-09-29T00:51:02.949Z,94.90
2017-09-29T00:56:04.002Z,94.90
2017-09-29T01:01:05.077Z,94.80
2017-09-29T01:06:06.135Z,95.30
2017-09-29T01:11:07.222Z,95.30
2017-09-29T01:16:08.265Z,95.20
2017-09-29T01:21:09.318Z,95.30
2017-09-29T01:26:10.395Z,95.30
2017-09-29T01:31:11.445Z,95.30
2017-09-29T01:36:12.535Z,95.30
2017-09-29T01:41:13.574Z,95.40
2017-09-29T01:46:14.637Z,95.30
2017-09-29T01:51:15.694Z,95.30
2017-09-29T01:56:16.741Z,95.30
2017-09-29T02:01:17.801Z,95.60
2017-09-29T02:06:18.850Z,95.30
2017-09-29T02:11:19.905Z,95.30
2017-09-29T02:16:20.941Z,95.30
2017-09-29T02:21:21.993Z,95.30
2017-09-29T02:26:23.029Z,95.30
2017-09-29T02:31:24.074Z,95.30
2017-09-29T02:36:25.118Z,95.40
2017-09-29T02:41:26.172Z,95.40
2017-09-29T02:46:27.212Z,95.40
2017-09-29T02:51:28.291Z,95.40
2017-09-29T02:56:38.052Z,95.40
2017-09-29T03:01:42.433Z,95.30
2017-09-29T03:06:43.510Z,95.30
2017-09-29T03:11:44.569Z,95.30
2017-09-29T03:16:45.643Z,95.30
2017-09-29T03:21:46.705Z,95.30
2017-09-29T03:26:47.776Z,95.30
2017-09-29T03:31:48.841Z,95.30
2017-09-29T03:36:50.646Z,95.50
2017-09-29T03:41:51.713Z,95.50
2017-09-29T03:46:52.789Z,95.50
2017-09-29T03:51:56.141Z,95.40
2017-09-29T03:56:59.621Z,95.30
2017-09-29T04:02:00.697Z,95.30
2017-09-29T04:07:01.781Z,95.30
2017-09-29T04:12:03.595Z,95.40
2017-09-29T04:17:04.637Z,95.40
2017-09-29T04:22:05.701Z,95.60
2017-09-29T04:27:06.781Z,95.60
2017-09-29T04:32:07.833Z,95.70
2017-09-29T04:37:08.896Z,95.60
2017-09-29T04:42:09.934Z,95.50
2017-09-29T04:47:10.985Z,95.50
2017-09-29T04:52:12.045Z,95.60
2017-09-29T04:57:13.110Z,95.90
2017-09-29T05:02:14.176Z,95.60
2017-09-29T05:07:15.233Z,95.60
2017-09-29T05:12:16.282Z,95.60
2017-09-29T05:17:17.353Z,95.70
2017-09-29T05:22:18.404Z,95.70
2017-09-29T05:27:19.466Z,95.80
2017-09-29T05:32:20.533Z,96.00
2017-09-29T05:37:21.582Z,96.10
2017-09-29T05:42:22.632Z,96.20
2017-09-29T05:47:23.672Z,96.50
2017-09-29T05:52:24.733Z,96.20
2017-09-29T05:57:25.779Z,96.20
2017-09-29T06:02:27.557Z,96.60
2017-09-29T06:07:29.341Z,96.20
2017-09-29T06:12:30.392Z,96.20
2017-09-29T06:17:32.176Z,96.30
2017-09-29T06:22:33.225Z,96.30
2017-09-29T06:27:35.058Z,96.40
2017-09-29T06:32:36.105Z,96.40
2017-09-29T06:37:37.141Z,96.40
2017-09-29T06:42:38.202Z,96.60
2017-09-29T06:47:39.241Z,95.80
2017-09-29T06:52:40.336Z,94.30
2017-09-29T06:57:41.398Z,92.60
2017-09-29T07:02:42.470Z,90.00
2017-09-29T07:07:43.534Z,85.40
2017-09-29T07:12:44.620Z,81.90
2017-09-29T07:17:45.797Z,76.50
2017-09-29T07:22:46.893Z,71.20
2017-09-29T07:27:50.601Z,63.00
2017-09-29T07:32:51.676Z,63.00
2017-09-29T07:37:52.744Z,58.80
2017-09-29T07:42:53.820Z,58.50
2017-09-29T07:47:54.889Z,56.60
2017-09-29T07:52:56.698Z,56.40
2017-09-29T07:57:57.753Z,56.40
2017-09-29T08:02:58.798Z,55.20
2017-09-29T08:07:59.829Z,56.60
2017-09-29T08:13:02.781Z,53.10
2017-09-29T08:18:03.827Z,53.00
2017-09-29T08:23:04.852Z,53.60
2017-09-29T08:28:06.630Z,47.30
2017-09-29T08:33:08.400Z,47.20
2017-09-29T08:38:10.184Z,49.20
2017-09-29T08:43:11.975Z,48.50
2017-09-29T08:48:13.006Z,48.50
2017-09-29T08:53:14.815Z,47.30
2017-09-29T08:58:15.862Z,47.40
2017-09-29T09:03:16.912Z,44.60
2017-09-29T09:08:17.963Z,41.70
2017-09-29T09:13:19.735Z,40.60
2017-09-29T09:18:21.581Z,44.20
2017-09-29T09:23:22.629Z,44.20
2017-09-29T09:28:23.666Z,44.90
2017-09-29T09:33:24.697Z,45.10
2017-09-29T09:38:25.733Z,43.60
2017-09-29T09:43:27.528Z,43.90
2017-09-29T09:48:28.580Z,43.90
2017-09-29T09:53:29.634Z,42.30
2017-09-29T09:58:31.462Z,42.00
2017-09-29T10:03:32.529Z,42.00
2017-09-29T10:08:33.666Z,41.90
2017-09-29T10:13:34.786Z,43.90
2017-09-29T10:18:36.576Z,42.20
2017-09-29T10:23:41.494Z,42.20
2017-09-29T10:28:42.552Z,41.20
2017-09-29T10:33:43.646Z,42.30
2017-09-29T10:38:44.703Z,41.60
2017-09-29T10:43:45.819Z,41.20
2017-09-29T10:48:46.869Z,43.70
2017-09-29T10:53:48.097Z,42.00
2017-09-29T10:58:51.191Z,41.90
2017-09-29T11:03:53.269Z,38.20
2017-09-29T11:08:54.419Z,38.10
2017-09-29T11:13:55.624Z,37.50
2017-09-29T11:18:56.746Z,37.40
2017-09-29T11:23:58.085Z,36.60
2017-09-29T11:28:59.883Z,37.10
2017-09-29T11:39:40.389Z,36.70
2017-09-29T11:44:41.454Z,36.00
2017-09-29T11:49:42.523Z,36.90
2017-09-29T11:54:43.636Z,34.70
2017-09-29T11:59:44.770Z,33.20
2017-09-29T12:04:46.608Z,29.40
2017-09-29T12:09:47.725Z,29.40
2017-09-29T12:14:48.996Z,29.20
2017-09-29T12:19:50.098Z,30.50
2017-09-29T12:24:51.169Z,33.30
2017-09-29T12:29:52.225Z,33.70
2017-09-29T12:34:53.401Z,33.60
2017-09-29T12:39:54.526Z,34.20
2017-09-29T12:44:55.603Z,33.60
2017-09-29T12:49:56.666Z,33.10
2017-09-29T12:54:58.468Z,36.40
2017-09-29T12:59:59.582Z,36.40
2017-09-29T13:05:00.764Z,36.70
2017-09-29T13:10:02.655Z,35.80
2017-09-29T13:15:04.496Z,35.50
2017-09-29T13:20:05.818Z,35.50
2017-09-29T13:25:06.934Z,36.30
2017-09-29T13:30:08.043Z,35.00
2017-09-29T13:35:09.162Z,34.60
2017-09-29T13:40:10.264Z,34.50
2017-09-29T13:45:12.110Z,41.80
2017-09-29T13:50:13.188Z,41.70
2017-09-29T13:55:14.290Z,41.70
2017-09-29T14:00:16.657Z,44.40
2017-09-29T14:05:17.758Z,44.30
2017-09-29T14:10:19.590Z,44.20
2017-09-29T14:15:21.702Z,44.10
2017-09-29T14:20:22.830Z,45.50
2017-09-29T14:25:23.989Z,45.30
2017-09-29T14:30:25.162Z,46.40
2017-09-29T14:35:26.277Z,45.80
2017-09-29T14:40:28.396Z,47.30
2017-09-29T14:45:29.510Z,47.10
2017-09-29T14:50:30.648Z,46.60
2017-09-29T14:55:31.779Z,47.80
2017-09-29T15:00:33.643Z,48.00
2017-09-29T15:05:34.762Z,47.90
2017-09-29T15:10:35.879Z,47.80
2017-09-29T15:15:37.966Z,48.00
2017-09-29T15:20:39.056Z,48.00
2017-09-29T15:25:41.427Z,47.70
2017-09-29T15:30:43.329Z,48.90
2017-09-29T15:35:44.669Z,48.90
2017-09-29T15:40:45.737Z,49.20
2017-09-29T15:45:46.820Z,49.20
2017-09-29T15:50:47.942Z,50.10
2017-09-29T15:55:49.071Z,49.80
2017-09-29T16:00:50.917Z,51.50
2017-09-29T16:05:52.057Z,52.10
2017-09-29T16:10:53.173Z,51.40
2017-09-29T16:15:54.264Z,51.40
2017-09-29T16:20:55.364Z,51.40
2017-09-29T16:25:56.518Z,53.10
2017-09-29T16:30:57.636Z,55.60
2017-09-29T16:35:59.478Z,55.80
2017-09-29T16:41:00.612Z,55.80
2017-09-29T16:46:01.797Z,55.60
2017-09-29T16:51:07.560Z,57.20
2017-09-29T16:56:08.695Z,58.10
2017-09-29T17:01:09.777Z,57.80
2017-09-29T17:06:10.919Z,58.50
2017-09-29T17:11:12.039Z,59.70
2017-09-29T17:16:13.151Z,60.90
2017-09-29T17:21:14.285Z,61.30
2017-09-29T17:26:15.377Z,61.70
2017-09-29T17:31:16.509Z,62.90
2017-09-29T17:36:17.658Z,65.10
2017-09-29T17:41:18.775Z,65.90
2017-09-29T17:46:20.130Z,66.40
2017-09-29T17:51:21.243Z,68.20
2017-09-29T17:56:23.099Z,70.30
2017-09-29T18:01:24.217Z,70.20
2017-09-29T18:06:25.333Z,71.90
2017-09-29T18:11:26.442Z,72.00
2017-09-29T18:16:27.531Z,72.90
2017-09-29T18:21:28.664Z,72.40
2017-09-29T18:26:30.573Z,76.20
2017-09-29T18:31:31.684Z,76.20
2017-09-29T18:36:32.841Z,77.10
2017-09-29T18:41:55.730Z,77.00
2017-09-29T18:46:57.636Z,81.30
2017-09-29T18:52:00.170Z,81.30
2017-09-29T18:57:01.315Z,81.00
2017-09-29T19:02:05.828Z,82.70
2017-09-29T19:07:07.689Z,86.90
2017-09-29T19:12:08.804Z,86.90
2017-09-29T19:17:09.863Z,87.70
2017-09-29T19:22:10.923Z,88.40
2017-09-29T19:27:12.714Z,91.00
2017-09-29T19:32:14.521Z,91.30
2017-09-29T19:37:15.574Z,91.30
2017-09-29T19:42:16.649Z,91.40
2017-09-29T19:47:17.701Z,91.20
2017-09-29T19:52:18.758Z,90.90
2017-09-29T19:57:19.813Z,91.00
2017-09-29T20:02:20.866Z,91.10
2017-09-29T20:07:21.913Z,91.50
2017-09-29T20:12:22.974Z,92.20
2017-09-29T20:17:24.238Z,92.40
2017-09-29T20:22:25.313Z,92.50
2017-09-29T20:27:26.369Z,92.50
2017-09-29T20:32:27.443Z,92.60
2017-09-29T20:37:28.488Z,92.70
2017-09-29T20:42:29.557Z,92.80
2017-09-29T20:47:31.339Z,93.30
2017-09-29T20:52:32.391Z,93.30
2017-09-29T20:57:33.446Z,93.30
2017-09-29T21:02:34.469Z,93.40
2017-09-29T21:07:37.242Z,93.10
2017-09-29T21:12:38.298Z,93.10
2017-09-29T21:17:39.346Z,93.40
2017-09-29T21:22:40.404Z,93.70
2017-09-29T21:27:41.455Z,93.50
2017-09-29T21:32:42.513Z,93.50
2017-09-29T21:37:43.560Z,92.90
2017-09-29T21:42:44.601Z,92.10
2017-09-29T21:47:45.645Z,91.80
2017-09-29T21:52:46.697Z,91.90
2017-09-29T21:57:47.742Z,91.80
2017-09-29T22:02:49.793Z,91.80
2017-09-29T22:07:50.891Z,91.50
2017-09-29T22:12:51.928Z,91.30
2017-09-29T22:17:53.725Z,90.40
2017-09-29T22:22:54.870Z,90.40
2017-09-29T22:27:56.671Z,89.70
2017-09-29T22:32:57.709Z,89.70
2017-09-29T22:37:58.757Z,89.10
2017-09-29T22:43:00.989Z,90.30
2017-09-29T22:48:02.146Z,89.90
2017-09-29T22:53:03.177Z,89.00
2017-09-29T22:58:04.249Z,89.00
2017-09-29T23:03:05.349Z,90.00
2017-09-29T23:08:06.469Z,89.90
2017-09-29T23:13:07.523Z,89.50
2017-09-29T23:18:08.605Z,89.00
2017-09-29T23:23:10.394Z,89.00
2017-09-29T23:28:11.479Z,89.00
2017-09-29T23:33:13.265Z,87.70
2017-09-29T23:38:15.145Z,87.10
2017-09-29T23:43:16.220Z,87.10
2017-09-29T23:48:17.265Z,86.80
2017-09-29T23:53:19.336Z,85.60
2017-09-29T23:58:21.173Z,84.80
